createdAt,value
2018-01-06T00:00:49.272Z,4.80
2018-01-06T00:03:17.515Z,4.80
2018-01-06T00:05:44.901Z,4.70
2018-01-06T00:08:12.424Z,4.80
2018-01-06T00:10:39.891Z,4.80
2018-01-06T00:13:07.339Z,4.80
2018-01-06T00:15:34.852Z,4.80
2018-01-06T00:18:03.076Z,4.80
2018-01-06T00:20:30.496Z,4.80
2018-01-06T00:22:57.989Z,4.80
2018-01-06T00:25:25.428Z,4.80
2018-01-06T00:27:52.856Z,4.80
2018-01-06T00:30:21.067Z,4.70
2018-01-06T00:32:48.496Z,4.70
2018-01-06T00:35:15.924Z,4.70
2018-01-06T00:37:43.455Z,4.70
2018-01-06T00:40:11.005Z,4.70
2018-01-06T00:42:38.471Z,4.60
2018-01-06T00:45:05.913Z,4.60
2018-01-06T00:47:33.364Z,4.60
2018-01-06T00:50:00.833Z,4.60
2018-01-06T00:52:28.288Z,4.60
2018-01-06T00:54:55.754Z,4.50
2018-01-06T00:57:23.176Z,4.50
2018-01-06T00:59:50.604Z,4.50
2018-01-06T01:02:18.834Z,4.40
2018-01-06T01:04:46.292Z,4.40
2018-01-06T01:07:13.749Z,4.40
2018-01-06T01:09:41.198Z,4.40
2018-01-06T01:12:08.664Z,4.40
2018-01-06T01:14:36.104Z,4.40
2018-01-06T01:17:03.584Z,4.40
2018-01-06T01:19:31.018Z,4.40
2018-01-06T01:21:58.492Z,4.40
2018-01-06T01:24:25.957Z,4.40
2018-01-06T01:26:53.408Z,4.40
2018-01-06T01:29:20.847Z,4.30
2018-01-06T01:31:48.328Z,4.30
2018-01-06T01:34:15.753Z,4.30
2018-01-06T01:36:43.244Z,4.30
2018-01-06T01:39:10.685Z,4.30
2018-01-06T01:41:38.123Z,4.30
2018-01-06T01:44:05.550Z,4.20
2018-01-06T01:46:32.988Z,4.20
2018-01-06T01:49:00.422Z,4.20
2018-01-06T01:51:27.852Z,4.20
2018-01-06T01:53:55.302Z,4.20
2018-01-06T01:56:22.730Z,4.20
2018-01-06T01:58:50.254Z,4.10
2018-01-06T02:01:17.804Z,4.10
2018-01-06T02:03:45.238Z,4.10
2018-01-06T02:06:12.726Z,4.10
2018-01-06T02:08:40.167Z,4.10
2018-01-06T02:11:07.600Z,4.00
2018-01-06T02:13:35.025Z,4.00
2018-01-06T02:16:02.468Z,4.00
2018-01-06T02:18:29.912Z,4.00
2018-01-06T02:20:57.353Z,4.10
2018-01-06T02:23:24.825Z,4.10
2018-01-06T02:25:52.261Z,4.10
2018-01-06T02:28:19.733Z,4.10
2018-01-06T02:30:47.179Z,4.10
2018-01-06T02:33:14.673Z,4.10
2018-01-06T02:35:42.105Z,4.10
2018-01-06T02:38:09.550Z,4.10
2018-01-06T02:40:37.027Z,4.10
2018-01-06T02:43:04.464Z,4.10
2018-01-06T02:45:31.908Z,4.00
2018-01-06T02:47:59.347Z,4.00
2018-01-06T02:50:27.540Z,4.00
2018-01-06T02:52:54.988Z,3.90
2018-01-06T02:55:22.484Z,3.90
2018-01-06T02:57:49.905Z,3.90
2018-01-06T03:00:17.392Z,3.90
2018-01-06T03:02:44.856Z,3.90
2018-01-06T03:05:12.288Z,3.80
2018-01-06T03:07:39.764Z,3.80
2018-01-06T03:10:07.212Z,3.80
2018-01-06T03:12:34.684Z,3.80
2018-01-06T03:15:02.236Z,3.80
2018-01-06T03:17:29.672Z,3.80
2018-01-06T03:19:57.116Z,3.80
2018-01-06T03:22:25.329Z,3.80
2018-01-06T03:24:52.784Z,3.80
2018-01-06T03:27:20.217Z,3.80
2018-01-06T03:29:47.657Z,3.80
2018-01-06T03:32:15.857Z,3.90
2018-01-06T03:34:43.293Z,3.80
2018-01-06T03:37:11.604Z,3.90
2018-01-06T03:39:39.052Z,3.90
2018-01-06T03:42:06.488Z,3.90
2018-01-06T03:44:33.980Z,3.90
2018-01-06T03:47:01.413Z,3.90
2018-01-06T03:49:28.841Z,3.90
2018-01-06T03:51:57.057Z,3.90
2018-01-06T03:54:24.532Z,3.90
2018-01-06T03:56:51.996Z,3.90
2018-01-06T03:59:19.589Z,3.90
2018-01-06T04:01:47.788Z,3.80
2018-01-06T04:04:15.280Z,3.80
2018-01-06T04:06:42.832Z,3.80
2018-01-06T04:09:10.260Z,3.80
2018-01-06T04:11:37.692Z,3.80
2018-01-06T04:14:05.902Z,3.80
2018-01-06T04:16:33.380Z,3.70
2018-01-06T04:19:00.808Z,3.70
2018-01-06T04:21:28.253Z,3.70
2018-01-06T04:23:56.444Z,3.70
2018-01-06T04:26:23.887Z,3.70
2018-01-06T04:28:52.204Z,3.70
2018-01-06T04:31:19.657Z,3.70
2018-01-06T04:33:47.084Z,3.70
2018-01-06T04:36:14.576Z,3.70
2018-01-06T04:38:42.009Z,3.70
2018-01-06T04:41:09.440Z,3.70
2018-01-06T04:43:37.648Z,3.70
2018-01-06T04:46:05.080Z,3.70
2018-01-06T04:48:33.292Z,3.80
2018-01-06T04:51:00.744Z,3.80
2018-01-06T04:53:28.212Z,3.80
2018-01-06T04:55:55.649Z,3.80
2018-01-06T04:58:23.980Z,3.80
2018-01-06T05:00:51.508Z,3.80
2018-01-06T05:03:18.948Z,3.80
2018-01-06T05:05:46.389Z,3.80
2018-01-06T05:08:13.816Z,3.80
2018-01-06T05:10:41.310Z,3.80
2018-01-06T05:13:08.765Z,3.70
2018-01-06T05:15:36.208Z,3.70
2018-01-06T05:18:03.628Z,3.70
2018-01-06T05:20:31.873Z,3.70
2018-01-06T05:22:59.418Z,3.70
2018-01-06T05:25:26.844Z,3.70
2018-01-06T05:27:54.296Z,3.60
2018-01-06T05:30:21.785Z,3.60
2018-01-06T05:32:49.217Z,3.50
2018-01-06T05:35:16.669Z,3.50
2018-01-06T05:37:44.864Z,3.40
2018-01-06T05:40:12.291Z,3.40
2018-01-06T05:42:40.500Z,3.40
2018-01-06T05:45:07.932Z,3.40
2018-01-06T05:47:35.421Z,3.40
2018-01-06T05:50:02.880Z,3.40
2018-01-06T05:52:30.340Z,3.30
2018-01-06T05:54:57.764Z,3.30
2018-01-06T05:57:25.250Z,3.30
2018-01-06T05:59:52.680Z,3.30
2018-01-06T06:02:20.114Z,3.30
2018-01-06T06:04:48.343Z,3.20
2018-01-06T06:07:15.801Z,3.20
2018-01-06T06:09:43.343Z,3.20
2018-01-06T06:12:10.764Z,3.20
2018-01-06T06:14:38.993Z,3.20
2018-01-06T06:17:06.432Z,3.20
2018-01-06T06:19:33.872Z,3.20
2018-01-06T06:22:01.361Z,3.20
2018-01-06T06:24:28.810Z,3.10
2018-01-06T06:26:56.272Z,3.10
2018-01-06T06:29:23.700Z,3.10
2018-01-06T06:31:51.188Z,3.10
2018-01-06T06:34:18.633Z,3.10
2018-01-06T06:36:46.057Z,3.10
2018-01-06T06:39:14.264Z,3.20
2018-01-06T06:41:41.741Z,3.10
2018-01-06T06:44:09.177Z,3.20
2018-01-06T06:46:36.644Z,3.20
2018-01-06T06:49:04.104Z,3.20
2018-01-06T06:51:31.532Z,3.20
2018-01-06T06:53:59.025Z,3.20
2018-01-06T06:56:26.576Z,3.20
2018-01-06T06:58:54.017Z,3.20
2018-01-06T07:01:21.440Z,3.20
2018-01-06T07:03:49.652Z,3.20
2018-01-06T07:06:17.080Z,3.20
2018-01-06T07:08:45.300Z,3.30
2018-01-06T07:11:12.749Z,3.20
2018-01-06T07:13:40.190Z,3.30
2018-01-06T07:16:07.613Z,3.30
2018-01-06T07:18:35.829Z,3.30
2018-01-06T07:21:03.297Z,3.30
2018-01-06T07:23:30.758Z,3.40
2018-01-06T07:25:58.220Z,3.40
2018-01-06T07:28:25.661Z,3.40
2018-01-06T07:30:53.129Z,3.40
2018-01-06T07:33:20.584Z,3.40
2018-01-06T07:35:48.040Z,3.50
2018-01-06T07:38:15.473Z,3.50
2018-01-06T07:40:42.957Z,3.40
2018-01-06T07:43:10.412Z,3.50
2018-01-06T07:45:37.965Z,3.50
2018-01-06T07:48:05.436Z,3.60
2018-01-06T07:50:32.878Z,3.60
2018-01-06T07:53:00.360Z,3.60
2018-01-06T07:55:27.801Z,3.60
2018-01-06T07:57:55.236Z,3.70
2018-01-06T08:00:22.672Z,3.70
2018-01-06T08:02:50.883Z,3.80
2018-01-06T08:05:18.308Z,3.70
2018-01-06T08:07:45.744Z,3.80
2018-01-06T08:10:13.182Z,3.80
2018-01-06T08:12:40.617Z,3.80
2018-01-06T08:15:08.053Z,3.80
2018-01-06T08:17:35.529Z,3.80
2018-01-06T08:20:02.987Z,3.90
2018-01-06T08:22:30.393Z,3.90
2018-01-06T08:24:58.712Z,3.90
2018-01-06T08:27:26.127Z,3.90
2018-01-06T08:29:55.180Z,4.00
2018-01-06T08:32:22.632Z,4.00
2018-01-06T08:34:50.094Z,4.00
2018-01-06T08:37:17.516Z,4.00
2018-01-06T08:39:44.956Z,4.00
2018-01-06T08:42:13.176Z,4.00
2018-01-06T08:44:40.628Z,4.00
2018-01-06T08:47:08.201Z,4.10
2018-01-06T08:49:35.649Z,4.10
2018-01-06T08:52:03.092Z,4.10
2018-01-06T08:54:30.528Z,4.10
2018-01-06T08:56:57.961Z,4.10
2018-01-06T08:59:26.193Z,4.60
2018-01-06T09:01:53.652Z,4.20
2018-01-06T09:04:21.121Z,4.20
2018-01-06T09:06:48.572Z,4.20
2018-01-06T09:09:16.040Z,4.20
2018-01-06T09:11:43.581Z,4.30
2018-01-06T09:14:11.035Z,4.30
2018-01-06T09:16:38.500Z,4.30
2018-01-06T09:19:05.953Z,4.30
2018-01-06T09:21:33.384Z,4.30
2018-01-06T09:24:00.828Z,4.40
2018-01-06T09:26:29.045Z,4.40
2018-01-06T09:28:56.476Z,4.40
2018-01-06T09:31:23.929Z,4.40
2018-01-06T09:33:51.423Z,4.50
2018-01-06T09:36:18.846Z,4.50
2018-01-06T09:38:46.284Z,4.50
2018-01-06T09:41:14.480Z,4.60
2018-01-06T09:43:42.007Z,4.60
2018-01-06T09:46:09.548Z,4.60
2018-01-06T09:48:37.080Z,4.90
2018-01-06T09:51:04.528Z,4.70
2018-01-06T09:53:31.952Z,4.70
2018-01-06T09:56:00.169Z,4.70
2018-01-06T09:58:27.615Z,4.70
2018-01-06T10:00:55.057Z,4.80
2018-01-06T10:03:22.488Z,4.80
2018-01-06T10:05:50.693Z,4.90
2018-01-06T10:08:18.140Z,4.90
2018-01-06T10:10:45.632Z,4.90
2018-01-06T10:13:13.080Z,4.90
2018-01-06T10:15:40.516Z,4.90
2018-01-06T10:18:07.959Z,5.00
2018-01-06T10:20:36.159Z,5.00
2018-01-06T10:23:03.611Z,5.00
2018-01-06T10:25:31.052Z,5.10
2018-01-06T10:27:58.545Z,5.10
2018-01-06T10:30:25.990Z,5.10
2018-01-06T10:32:53.426Z,5.10
2018-01-06T10:35:20.889Z,5.10
2018-01-06T10:37:48.372Z,5.20
2018-01-06T10:40:15.822Z,5.20
2018-01-06T10:42:43.262Z,5.30
2018-01-06T10:45:10.697Z,5.30
2018-01-06T10:47:38.165Z,5.30
2018-01-06T10:50:05.603Z,5.40
2018-01-06T10:52:33.070Z,5.50
2018-01-06T10:55:00.492Z,5.60
2018-01-06T10:57:28.698Z,5.70
2018-01-06T10:59:56.240Z,5.70
2018-01-06T11:02:23.680Z,5.70
2018-01-06T11:04:51.112Z,5.80
2018-01-06T11:07:19.324Z,5.90
2018-01-06T11:09:46.788Z,5.90
2018-01-06T11:12:14.263Z,5.90
2018-01-06T11:14:41.686Z,5.90
2018-01-06T11:17:09.127Z,5.90
2018-01-06T11:19:36.570Z,5.90
2018-01-06T11:22:04.781Z,6.00
2018-01-06T11:24:32.220Z,6.00
2018-01-06T11:26:59.646Z,6.00
2018-01-06T11:29:27.862Z,6.10
2018-01-06T11:31:55.301Z,6.10
2018-01-06T11:34:22.789Z,6.10
2018-01-06T11:36:50.234Z,6.20
2018-01-06T11:39:17.676Z,6.20
2018-01-06T11:41:45.160Z,6.20
2018-01-06T11:44:12.613Z,6.30
2018-01-06T11:46:40.045Z,6.30
2018-01-06T11:49:07.473Z,6.30
2018-01-06T11:51:35.711Z,6.40
2018-01-06T11:54:03.141Z,6.40
2018-01-06T11:56:30.622Z,6.40
2018-01-06T11:58:58.065Z,6.40
2018-01-06T12:01:25.532Z,6.40
2018-01-06T12:03:52.983Z,6.50
2018-01-06T12:06:20.449Z,6.50
2018-01-06T12:08:47.889Z,6.50
2018-01-06T12:11:15.329Z,6.50
2018-01-06T12:13:42.782Z,6.50
2018-01-06T12:16:10.981Z,6.50
2018-01-06T12:18:38.409Z,6.50
2018-01-06T12:21:06.628Z,6.60
2018-01-06T12:23:34.070Z,6.60
2018-01-06T12:26:01.508Z,6.60
2018-01-06T12:28:29.054Z,6.60
2018-01-06T12:30:57.286Z,6.70
2018-01-06T12:33:25.524Z,6.70
2018-01-06T12:35:52.973Z,6.70
2018-01-06T12:38:20.482Z,6.70
2018-01-06T12:40:47.912Z,6.70
2018-01-06T12:43:15.353Z,6.70
2018-01-06T12:45:42.836Z,6.70
2018-01-06T12:48:10.268Z,6.70
2018-01-06T12:50:37.755Z,6.70
2018-01-06T12:53:05.189Z,6.70
2018-01-06T12:55:32.615Z,6.70
2018-01-06T12:58:00.830Z,6.70
2018-01-06T13:00:31.153Z,6.70
2018-01-06T13:02:58.572Z,6.70
2018-01-06T13:05:26.785Z,6.70
2018-01-06T13:07:54.247Z,6.70
2018-01-06T13:10:21.705Z,6.80
2018-01-06T13:12:49.258Z,6.70
2018-01-06T13:15:16.730Z,6.80
2018-01-06T13:17:44.180Z,6.80
2018-01-06T13:20:11.644Z,6.80
2018-01-06T13:22:39.101Z,6.80
2018-01-06T13:25:07.341Z,6.80
2018-01-06T13:27:34.825Z,6.80
2018-01-06T13:30:02.261Z,6.80
2018-01-06T13:32:29.705Z,6.80
2018-01-06T13:34:57.163Z,6.80
2018-01-06T13:37:25.467Z,6.80
2018-01-06T13:39:52.880Z,6.80
2018-01-06T13:42:21.099Z,6.80
2018-01-06T13:44:48.568Z,6.90
2018-01-06T13:47:16.000Z,6.90
2018-01-06T13:49:43.448Z,6.90
2018-01-06T13:52:10.936Z,6.80
2018-01-06T13:54:38.393Z,6.80
2018-01-06T13:57:05.860Z,6.80
2018-01-06T13:59:33.293Z,6.80
2018-01-06T14:02:00.724Z,6.80
2018-01-06T14:04:28.934Z,6.80
2018-01-06T14:06:56.372Z,6.80
2018-01-06T14:09:23.829Z,6.80
2018-01-06T14:11:51.273Z,6.80
2018-01-06T14:14:19.513Z,6.80
2018-01-06T14:16:46.974Z,6.80
2018-01-06T14:19:14.516Z,6.80
2018-01-06T14:21:41.956Z,6.80
2018-01-06T14:24:09.395Z,6.70
2018-01-06T14:26:36.847Z,6.70
2018-01-06T14:29:04.265Z,6.70
2018-01-06T14:31:33.212Z,6.60
2018-01-06T14:34:00.676Z,6.60
2018-01-06T14:36:28.109Z,6.50
2018-01-06T14:38:55.557Z,6.50
2018-01-06T14:41:23.765Z,6.50
2018-01-06T14:43:51.196Z,6.50
2018-01-06T14:46:18.682Z,6.50
2018-01-06T14:48:46.117Z,6.40
2018-01-06T14:51:13.552Z,6.40
2018-01-06T14:53:41.772Z,6.40
2018-01-06T14:56:09.224Z,6.30
2018-01-06T14:58:36.685Z,6.40
2018-01-06T15:01:04.117Z,6.30
2018-01-06T15:03:31.566Z,6.30
2018-01-06T15:05:59.900Z,6.30
2018-01-06T15:08:27.358Z,6.30
2018-01-06T15:10:54.784Z,6.30
2018-01-06T15:13:22.266Z,6.30
2018-01-06T15:15:49.705Z,6.30
2018-01-06T15:18:17.160Z,6.30
2018-01-06T15:20:44.592Z,6.30
2018-01-06T15:23:12.072Z,6.30
2018-01-06T15:25:39.528Z,6.20
2018-01-06T15:28:07.043Z,6.20
2018-01-06T15:30:34.420Z,6.20
2018-01-06T15:33:01.864Z,6.20
2018-01-06T15:35:30.081Z,6.20
2018-01-06T15:37:57.539Z,6.20
2018-01-06T15:40:24.992Z,6.10
2018-01-06T15:42:52.428Z,6.10
2018-01-06T15:45:19.864Z,6.10
2018-01-06T15:47:48.073Z,6.10
2018-01-06T15:50:15.504Z,6.10
2018-01-06T15:52:42.996Z,6.10
2018-01-06T15:55:10.447Z,6.10
2018-01-06T15:57:37.881Z,6.00
2018-01-06T16:00:05.369Z,6.00
2018-01-06T16:02:32.811Z,6.00
2018-01-06T16:05:00.242Z,6.00
2018-01-06T16:07:28.442Z,6.00
2018-01-06T16:09:55.885Z,6.00
2018-01-06T16:12:23.387Z,5.90
2018-01-06T16:14:50.825Z,6.00
2018-01-06T16:17:18.272Z,6.00
2018-01-06T16:19:46.614Z,6.00
2018-01-06T16:22:14.215Z,6.00
2018-01-06T16:24:41.786Z,6.00
2018-01-06T16:27:09.236Z,6.00
2018-01-06T16:29:36.668Z,6.00
2018-01-06T16:32:04.120Z,6.00
2018-01-06T16:34:31.560Z,6.00
2018-01-06T16:36:59.757Z,6.00
2018-01-06T16:39:27.204Z,6.00
2018-01-06T16:41:55.429Z,6.00
2018-01-06T16:44:22.863Z,6.00
2018-01-06T16:46:50.337Z,6.00
2018-01-06T16:49:17.760Z,6.00
2018-01-06T16:51:45.192Z,6.00
2018-01-06T16:54:13.408Z,5.90
2018-01-06T16:56:40.833Z,5.90
2018-01-06T16:59:09.051Z,5.90
2018-01-06T17:01:36.495Z,5.90
2018-01-06T17:04:03.971Z,5.90
2018-01-06T17:06:31.389Z,5.90
2018-01-06T17:08:58.848Z,5.90
2018-01-06T17:11:26.308Z,5.90
2018-01-06T17:13:53.793Z,5.90
2018-01-06T17:16:21.233Z,5.90
2018-01-06T17:18:48.660Z,5.90
2018-01-06T17:21:16.869Z,5.90
2018-01-06T17:23:44.337Z,5.90
2018-01-06T17:26:11.774Z,5.90
2018-01-06T17:28:39.197Z,5.90
2018-01-06T17:31:07.743Z,5.80
2018-01-06T17:33:35.173Z,5.80
2018-01-06T17:36:02.630Z,5.80
2018-01-06T17:38:30.053Z,5.80
2018-01-06T17:40:58.286Z,5.70
2018-01-06T17:43:25.712Z,5.70
2018-01-06T17:45:53.144Z,5.60
2018-01-06T17:48:21.370Z,5.60
2018-01-06T17:50:48.798Z,5.50
2018-01-06T17:53:16.284Z,5.50
2018-01-06T17:55:43.713Z,5.50
2018-01-06T17:58:11.195Z,5.40
2018-01-06T18:00:38.644Z,5.40
2018-01-06T18:03:06.068Z,5.40
2018-01-06T18:05:34.281Z,5.40
2018-01-06T18:08:01.730Z,5.40
2018-01-06T18:10:29.153Z,5.30
2018-01-06T18:12:57.361Z,5.30
2018-01-06T18:15:24.826Z,5.20
2018-01-06T18:17:52.297Z,5.20
2018-01-06T18:20:19.731Z,5.10
2018-01-06T18:22:47.172Z,5.10
2018-01-06T18:25:14.688Z,5.10
2018-01-06T18:27:42.942Z,5.00
2018-01-06T18:30:10.386Z,5.00
2018-01-06T18:32:37.817Z,5.00
2018-01-06T18:35:05.307Z,4.90
2018-01-06T18:37:32.751Z,4.90
2018-01-06T18:40:00.177Z,4.90
2018-01-06T18:42:28.383Z,4.80
2018-01-06T18:44:55.849Z,4.80
2018-01-06T18:47:23.288Z,4.80
2018-01-06T18:49:50.715Z,4.80
2018-01-06T18:52:18.926Z,4.80
2018-01-06T18:54:46.401Z,4.70
2018-01-06T18:57:13.831Z,4.80
2018-01-06T18:59:41.312Z,4.80
2018-01-06T19:02:09.462Z,4.70
2018-01-06T19:04:36.890Z,4.80
2018-01-06T19:07:05.103Z,4.80
2018-01-06T19:09:32.533Z,4.80
2018-01-06T19:12:00.760Z,4.80
2018-01-06T19:14:28.305Z,4.80
2018-01-06T19:16:55.764Z,4.80
2018-01-06T19:19:23.200Z,4.80
2018-01-06T19:21:50.625Z,4.80
2018-01-06T19:24:18.857Z,4.80
2018-01-06T19:26:46.296Z,4.80
2018-01-06T19:29:13.741Z,4.80
2018-01-06T19:31:41.220Z,4.80
2018-01-06T19:34:08.691Z,4.80
2018-01-06T19:36:36.132Z,4.70
2018-01-06T19:39:03.565Z,4.80
2018-01-06T19:41:31.054Z,4.70
2018-01-06T19:43:58.510Z,4.70
2018-01-06T19:46:25.973Z,4.70
2018-01-06T19:48:53.407Z,4.70
2018-01-06T19:51:20.841Z,4.60
2018-01-06T19:53:49.031Z,4.60
2018-01-06T19:56:16.500Z,4.50
2018-01-06T19:58:43.925Z,4.50
2018-01-06T20:01:12.127Z,4.40
2018-01-06T20:03:39.545Z,4.40
2018-01-06T20:06:07.745Z,4.30
2018-01-06T20:08:35.237Z,4.30
2018-01-06T20:11:02.689Z,4.30
2018-01-06T20:13:30.093Z,4.30
2018-01-06T20:15:58.284Z,4.20
2018-01-06T20:18:25.713Z,4.10
2018-01-06T20:20:53.172Z,4.10
2018-01-06T20:23:20.589Z,4.10
2018-01-06T20:25:48.036Z,4.00
2018-01-06T20:28:15.469Z,4.00
2018-01-06T20:30:42.905Z,4.00
2018-01-06T20:33:11.104Z,3.90
2018-01-06T20:35:38.545Z,3.90
2018-01-06T20:38:06.764Z,3.80
2018-01-06T20:40:34.200Z,3.80
2018-01-06T20:43:01.642Z,3.80
2018-01-06T20:45:29.848Z,3.70
2018-01-06T20:47:57.278Z,3.70
2018-01-06T20:50:24.785Z,3.70
2018-01-06T20:52:52.220Z,3.70
2018-01-06T20:55:19.683Z,3.70
2018-01-06T20:57:47.127Z,3.60
2018-01-06T21:00:14.601Z,3.60
2018-01-06T21:02:42.033Z,3.60
2018-01-06T21:05:09.528Z,3.50
2018-01-06T21:07:36.946Z,3.50
2018-01-06T21:10:04.437Z,3.50
2018-01-06T21:12:31.881Z,3.50
2018-01-06T21:14:59.341Z,3.40
2018-01-06T21:17:26.844Z,3.40
2018-01-06T21:19:54.301Z,3.40
2018-01-06T21:22:22.529Z,3.30
2018-01-06T21:24:50.132Z,3.30
2018-01-06T21:27:17.644Z,3.30
2018-01-06T21:29:45.116Z,3.30
2018-01-06T21:32:12.536Z,3.20
2018-01-06T21:34:39.995Z,3.20
2018-01-06T21:37:07.467Z,3.20
2018-01-06T21:39:34.895Z,3.20
2018-01-06T21:42:03.118Z,3.10
2018-01-06T21:44:30.575Z,3.10
2018-01-06T21:46:58.021Z,3.10
2018-01-06T21:49:25.461Z,3.10
2018-01-06T21:51:52.881Z,3.00
2018-01-06T21:54:21.114Z,3.00
2018-01-06T21:56:48.577Z,3.00
2018-01-06T21:59:16.009Z,3.00
2018-01-06T22:01:43.432Z,3.00
2018-01-06T22:04:11.668Z,3.00
2018-01-06T22:06:39.097Z,2.90
2018-01-06T22:09:06.663Z,2.90
2018-01-06T22:11:34.080Z,2.90
2018-01-06T22:14:02.309Z,2.90
2018-01-06T22:16:29.781Z,2.90
2018-01-06T22:18:57.223Z,2.90
2018-01-06T22:21:24.660Z,2.90
2018-01-06T22:23:52.073Z,2.80
2018-01-06T22:26:19.596Z,2.80
2018-01-06T22:28:47.052Z,2.80
2018-01-06T22:31:14.545Z,2.80
2018-01-06T22:33:41.980Z,2.80
2018-01-06T22:36:09.440Z,2.80
2018-01-06T22:38:36.970Z,2.80
2018-01-06T22:41:04.463Z,2.70
2018-01-06T22:43:31.868Z,2.70
2018-01-06T22:45:59.304Z,2.70
2018-01-06T22:48:27.541Z,2.70
2018-01-06T22:50:55.048Z,2.60
2018-01-06T22:53:23.244Z,2.60
2018-01-06T22:55:50.740Z,2.60
2018-01-06T22:58:18.281Z,2.60
2018-01-06T23:00:49.717Z,2.60
2018-01-06T23:03:17.188Z,2.60
2018-01-06T23:05:44.633Z,2.60
2018-01-06T23:08:12.101Z,2.50
2018-01-06T23:10:39.556Z,2.50
2018-01-06T23:13:07.626Z,2.50
2018-01-06T23:15:35.115Z,2.50
2018-01-06T23:18:03.336Z,2.50
2018-01-06T23:20:30.760Z,2.50
2018-01-06T23:22:58.952Z,2.40
2018-01-06T23:25:26.457Z,2.40
2018-01-06T23:27:53.916Z,2.40
2018-01-06T23:30:21.345Z,2.40
2018-01-06T23:32:48.790Z,2.40
2018-01-06T23:35:16.216Z,2.40
2018-01-06T23:37:43.737Z,2.40
2018-01-06T23:40:11.184Z,2.40
2018-01-06T23:42:38.622Z,2.40
2018-01-06T23:45:06.052Z,2.40
2018-01-06T23:47:34.284Z,2.30
2018-01-06T23:50:01.738Z,2.30
2018-01-06T23:52:29.197Z,2.30
2018-01-06T23:54:56.672Z,2.30
2018-01-06T23:57:24.129Z,2.30
2018-01-06T23:59:51.665Z,2.30
